Time;durP1;ratioP1;P1;durP2;ratioP2;P2;SDS_P1;SDS_P2;PMS_P1;PMS_P2;Temp;Humidity;BMP_temperature;BMP_pressure;BME280_temperature;BME280_humidity;BME280_pressure;Samples;Min_cycle;Max_cycle;Signal;HPM_P1;HPM_P2
2023/05/28 00:00:50;;;;;;;19.87;8.83;;;;;;;;;;5036081;28;20283;-90
2023/05/28 00:03:18;;;;;;;22.30;9.47;;;;;;;;;;5036281;28;20255;-90
2023/05/28 00:05:45;;;;;;;18.87;9.83;;;;;;;;;;5035520;28;20200;-90
2023/05/28 00:08:13;;;;;;;22.43;9.77;;;;;;;;;;5036499;28;20260;-91
2023/05/28 00:10:41;;;;;;;21.80;9.97;;;;;;;;;;5036008;28;20303;-91
2023/05/28 00:13:08;;;;;;;20.30;9.23;;;;;;;;;;5036080;28;20279;-91
2023/05/28 00:15:36;;;;;;;22.33;9.70;;;;;;;;;;5035306;28;20681;-90
2023/05/28 00:18:05;;;;;;;21.33;9.37;;;;;;;;;;5035967;28;20215;-91
2023/05/28 00:20:32;;;;;;;23.13;9.83;;;;;;;;;;5035075;28;20200;-91
2023/05/28 00:23:00;;;;;;;24.13;9.67;;;;;;;;;;5035751;28;20212;-89
2023/05/28 00:25:27;;;;;;;27.03;10.03;;;;;;;;;;5035350;28;20201;-90
2023/05/28 00:27:54;;;;;;;22.50;9.53;;;;;;;;;;5034944;28;20558;-91
2023/05/28 00:30:23;;;;;;;29.00;10.37;;;;;;;;;;5035348;28;20232;-90
2023/05/28 00:32:50;;;;;;;21.73;10.47;;;;;;;;;;5035319;28;20196;-91
2023/05/28 00:35:19;;;;;;;21.03;10.07;;;;;;;;;;5034546;28;20327;-91
2023/05/28 00:37:46;;;;;;;23.17;9.90;;;;;;;;;;5035575;28;20231;-89
2023/05/28 00:40:15;;;;;;;24.57;9.33;;;;;;;;;;5035292;28;20235;-91
2023/05/28 00:42:43;;;;;;;22.77;9.67;;;;;;;;;;5034948;28;20196;-91
2023/05/28 00:45:11;;;;;;;24.03;10.13;;;;;;;;;;5035454;28;20199;-91
2023/05/28 00:47:38;;;;;;;19.23;9.63;;;;;;;;;;5035882;28;20184;-91
2023/05/28 00:50:07;;;;;;;20.87;10.57;;;;;;;;;;5035269;28;20251;-91
2023/05/28 00:52:36;;;;;;;26.80;9.50;;;;;;;;;;5036229;28;20222;-91
2023/05/28 00:55:04;;;;;;;22.30;9.87;;;;;;;;;;5035849;28;20224;-91
2023/05/28 00:57:31;;;;;;;23.37;10.50;;;;;;;;;;5038193;28;20220;-90
2023/05/28 01:00:04;;;;;;;22.87;9.97;;;;;;;;;;5038655;28;20791;-90
2023/05/28 01:02:31;;;;;;;19.43;9.40;;;;;;;;;;5043106;28;20200;-91
2023/05/28 01:04:58;;;;;;;22.10;9.53;;;;;;;;;;5040479;28;20197;-92
2023/05/28 01:07:26;;;;;;;24.17;9.80;;;;;;;;;;5039532;28;20242;-92
2023/05/28 01:09:54;;;;;;;22.73;10.40;;;;;;;;;;5040469;28;20236;-93
2023/05/28 01:12:23;;;;;;;20.67;9.13;;;;;;;;;;5040480;28;20269;-91
2023/05/28 01:14:50;;;;;;;22.63;9.90;;;;;;;;;;5048278;28;20298;-91
2023/05/28 01:17:17;;;;;;;25.53;10.73;;;;;;;;;;5054625;28;20245;-91
2023/05/28 01:19:47;;;;;;;26.10;9.87;;;;;;;;;;5054435;28;20188;-91
2023/05/28 01:22:17;;;;;;;19.90;10.10;;;;;;;;;;5055922;28;20204;-92
2023/05/28 01:24:46;;;;;;;22.57;10.13;;;;;;;;;;5055105;28;20718;-91
2023/05/28 01:27:14;;;;;;;24.67;10.07;;;;;;;;;;5054832;28;20223;-91
2023/05/28 01:29:41;;;;;;;21.57;9.20;;;;;;;;;;5023271;28;20312;-91
2023/05/28 01:32:08;;;;;;;22.17;9.70;;;;;;;;;;5019227;28;20193;-92
2023/05/28 01:34:35;;;;;;;22.47;9.97;;;;;;;;;;5033991;28;20322;-92
2023/05/28 01:37:05;;;;;;;27.93;10.23;;;;;;;;;;5034107;28;20196;-92
2023/05/28 01:39:36;;;;;;;22.63;10.63;;;;;;;;;;5033917;28;20200;-91
2023/05/28 01:42:07;;;;;;;20.33;9.27;;;;;;;;;;5034641;28;20224;-92
2023/05/28 01:44:34;;;;;;;23.67;10.27;;;;;;;;;;5035534;28;20280;-92
2023/05/28 01:47:01;;;;;;;24.07;10.27;;;;;;;;;;5034666;28;20222;-92
2023/05/28 01:49:28;;;;;;;20.23;10.73;;;;;;;;;;5033965;28;20263;-92
2023/05/28 01:51:57;;;;;;;23.07;10.03;;;;;;;;;;5034111;28;20275;-91
2023/05/28 01:54:24;;;;;;;25.33;10.03;;;;;;;;;;5033996;28;20676;-91
2023/05/28 01:56:51;;;;;;;23.33;9.70;;;;;;;;;;5034349;28;20238;-92
2023/05/28 01:59:20;;;;;;;26.83;10.80;;;;;;;;;;5033505;28;20324;-91
2023/05/28 02:01:47;;;;;;;21.67;9.90;;;;;;;;;;5033796;28;20207;-91
2023/05/28 02:04:14;;;;;;;26.13;10.20;;;;;;;;;;5033903;28;20279;-91
2023/05/28 02:06:42;;;;;;;23.20;10.43;;;;;;;;;;5034006;28;20223;-90
2023/05/28 02:09:10;;;;;;;23.33;10.03;;;;;;;;;;5034414;28;20634;-91
2023/05/28 02:11:38;;;;;;;26.00;9.73;;;;;;;;;;5034019;28;20259;-91
2023/05/28 02:14:05;;;;;;;22.67;9.53;;;;;;;;;;5040335;28;20247;-91
2023/05/28 02:16:35;;;;;;;29.63;10.70;;;;;;;;;;5044579;28;20195;-91
2023/05/28 02:19:03;;;;;;;22.23;9.73;;;;;;;;;;5046676;28;20204;-92
2023/05/28 02:21:30;;;;;;;22.13;10.10;;;;;;;;;;5047249;28;20599;-91
2023/05/28 02:23:57;;;;;;;23.87;10.50;;;;;;;;;;5044466;28;20248;-91
2023/05/28 02:26:25;;;;;;;20.33;9.83;;;;;;;;;;5040200;28;20299;-91
2023/05/28 02:28:52;;;;;;;22.53;9.97;;;;;;;;;;5040728;28;20214;-91
2023/05/28 02:31:19;;;;;;;25.87;10.23;;;;;;;;;;5040129;28;20315;-91
2023/05/28 02:33:48;;;;;;;20.87;10.50;;;;;;;;;;5039981;28;20256;-92
2023/05/28 02:36:15;;;;;;;23.53;9.97;;;;;;;;;;5040311;28;20763;-91
2023/05/28 02:38:43;;;;;;;25.23;10.33;;;;;;;;;;5040057;28;20228;-91
2023/05/28 02:41:10;;;;;;;22.87;10.07;;;;;;;;;;5040050;28;20295;-90
2023/05/28 02:43:38;;;;;;;24.50;10.13;;;;;;;;;;5039850;28;20608;-90
2023/05/28 02:46:06;;;;;;;20.00;9.70;;;;;;;;;;5039586;28;20987;-91
2023/05/28 02:48:33;;;;;;;23.53;10.20;;;;;;;;;;5040433;28;20201;-91
2023/05/28 02:51:01;;;;;;;22.53;9.93;;;;;;;;;;5040175;28;20259;-90
2023/05/28 02:53:31;;;;;;;28.67;10.40;;;;;;;;;;5040316;28;20744;-90
2023/05/28 02:55:58;;;;;;;22.30;10.10;;;;;;;;;;5026107;28;20197;-91
2023/05/28 02:58:25;;;;;;;22.00;9.67;;;;;;;;;;5020044;28;20280;-91
2023/05/28 03:00:53;;;;;;;25.87;10.37;;;;;;;;;;5020137;28;20288;-91
2023/05/28 03:03:20;;;;;;;25.37;10.30;;;;;;;;;;5019760;28;20235;-91
2023/05/28 03:05:47;;;;;;;23.47;10.03;;;;;;;;;;5020132;28;20232;-91
2023/05/28 03:08:16;;;;;;;23.17;10.33;;;;;;;;;;5020214;28;20845;-90
2023/05/28 03:10:43;;;;;;;24.43;10.30;;;;;;;;;;5021273;28;20307;-91
2023/05/28 03:13:11;;;;;;;23.73;9.70;;;;;;;;;;5024470;28;20227;-91
2023/05/28 03:15:38;;;;;;;26.20;11.10;;;;;;;;;;5057401;28;20257;-91
2023/05/28 03:18:05;;;;;;;22.47;10.53;;;;;;;;;;5065367;28;20235;-91
2023/05/28 03:20:33;;;;;;;23.73;10.73;;;;;;;;;;5065337;28;20259;-91
2023/05/28 03:23:00;;;;;;;24.43;10.83;;;;;;;;;;5064304;28;20196;-90
2023/05/28 03:25:29;;;;;;;19.27;10.20;;;;;;;;;;5045214;28;20231;-91
2023/05/28 03:27:56;;;;;;;25.40;10.20;;;;;;;;;;5036333;28;20227;-90
2023/05/28 03:30:23;;;;;;;26.53;10.53;;;;;;;;;;5036256;28;20792;-90
2023/05/28 03:32:51;;;;;;;24.93;10.97;;;;;;;;;;5036351;28;20221;-90
2023/05/28 03:35:18;;;;;;;25.80;11.43;;;;;;;;;;5037119;28;20268;-91
2023/05/28 03:37:45;;;;;;;22.27;10.77;;;;;;;;;;5042281;28;20216;-91
2023/05/28 03:40:13;;;;;;;22.50;10.27;;;;;;;;;;5042270;28;20287;-90
2023/05/28 03:42:41;;;;;;;25.67;10.97;;;;;;;;;;5041239;28;20208;-91
2023/05/28 03:45:09;;;;;;;23.23;10.27;;;;;;;;;;5036599;28;20720;-91
2023/05/28 03:47:36;;;;;;;24.50;10.37;;;;;;;;;;5036459;28;20226;-91
2023/05/28 03:50:05;;;;;;;21.57;9.90;;;;;;;;;;5035965;28;20665;-91
2023/05/28 03:52:32;;;;;;;23.57;10.27;;;;;;;;;;5036523;28;20185;-91
2023/05/28 03:54:59;;;;;;;24.10;11.40;;;;;;;;;;5035730;28;20299;-91
2023/05/28 03:57:27;;;;;;;24.60;10.10;;;;;;;;;;5036004;28;20197;-90
2023/05/28 03:59:57;;;;;;;23.57;10.30;;;;;;;;;;5036008;28;20661;-91
2023/05/28 04:02:24;;;;;;;22.73;10.30;;;;;;;;;;5036199;28;20227;-91
2023/05/28 04:04:52;;;;;;;24.90;10.87;;;;;;;;;;5035840;28;20192;-91
2023/05/28 04:07:20;;;;;;;21.20;10.40;;;;;;;;;;5036009;28;20198;-91
2023/05/28 04:09:47;;;;;;;22.13;10.10;;;;;;;;;;5036068;28;20203;-90
2023/05/28 04:12:14;;;;;;;24.93;10.77;;;;;;;;;;5035437;28;20316;-91
2023/05/28 04:14:41;;;;;;;21.80;10.07;;;;;;;;;;5043782;28;20218;-90
2023/05/28 04:17:12;;;;;;;25.23;10.87;;;;;;;;;;5055733;28;20207;-91
2023/05/28 04:19:40;;;;;;;21.03;10.97;;;;;;;;;;5055634;28;20198;-91
2023/05/28 04:22:08;;;;;;;27.57;10.93;;;;;;;;;;5055728;28;20231;-91
2023/05/28 04:24:36;;;;;;;25.77;11.50;;;;;;;;;;5050911;28;20207;-91
2023/05/28 04:27:03;;;;;;;26.73;10.97;;;;;;;;;;5035861;28;20191;-91
2023/05/28 04:29:30;;;;;;;23.23;10.90;;;;;;;;;;5035007;28;20595;-92
2023/05/28 04:31:58;;;;;;;25.07;11.20;;;;;;;;;;5035446;28;20260;-91
2023/05/28 04:34:27;;;;;;;24.00;10.97;;;;;;;;;;5035463;28;20242;-91
2023/05/28 04:36:56;;;;;;;22.57;10.80;;;;;;;;;;5035424;28;20264;-91
2023/05/28 04:39:24;;;;;;;25.37;11.27;;;;;;;;;;5035422;28;20662;-91
2023/05/28 04:41:53;;;;;;;24.77;11.93;;;;;;;;;;5035111;28;20192;-91
2023/05/28 04:44:20;;;;;;;24.50;11.40;;;;;;;;;;5035240;28;20211;-90
2023/05/28 04:46:48;;;;;;;23.80;10.83;;;;;;;;;;5035259;28;20258;-91
2023/05/28 04:49:15;;;;;;;23.77;10.77;;;;;;;;;;5034955;28;20788;-91
2023/05/28 04:51:43;;;;;;;23.97;11.73;;;;;;;;;;5034784;28;20307;-91
2023/05/28 04:54:11;;;;;;;22.27;10.77;;;;;;;;;;5035952;28;20287;-91
2023/05/28 04:56:38;;;;;;;26.87;11.30;;;;;;;;;;5041559;28;20213;-91
2023/05/28 04:59:09;;;;;;;26.17;10.83;;;;;;;;;;5040189;28;20288;-91
2023/05/28 05:01:36;;;;;;;23.03;10.60;;;;;;;;;;5039328;28;20192;-91
2023/05/28 05:04:03;;;;;;;27.87;11.37;;;;;;;;;;5034685;28;20231;-92
2023/05/28 05:06:31;;;;;;;24.83;10.40;;;;;;;;;;5034790;28;20665;-92
2023/05/28 05:08:59;;;;;;;26.67;11.27;;;;;;;;;;5035490;28;20205;-91
2023/05/28 05:11:27;;;;;;;22.90;10.57;;;;;;;;;;5034710;28;20708;-90
2023/05/28 05:13:54;;;;;;;20.83;10.30;;;;;;;;;;5034600;28;20747;-91
2023/05/28 05:16:21;;;;;;;22.80;10.70;;;;;;;;;;5034680;28;20254;-91
2023/05/28 05:18:49;;;;;;;26.83;10.97;;;;;;;;;;5035153;28;20263;-92
2023/05/28 05:21:17;;;;;;;18.63;10.10;;;;;;;;;;5038025;28;20193;-91
2023/05/28 05:23:44;;;;;;;25.70;10.80;;;;;;;;;;5038623;28;20556;-90
2023/05/28 05:26:14;;;;;;;22.67;10.70;;;;;;;;;;5037734;28;20231;-91
2023/05/28 05:28:42;;;;;;;21.90;10.00;;;;;;;;;;5037500;28;20188;-91
2023/05/28 05:31:11;;;;;;;24.53;10.97;;;;;;;;;;5036899;28;20224;-90
2023/05/28 05:33:39;;;;;;;23.17;10.20;;;;;;;;;;5034737;28;20240;-91
2023/05/28 05:36:06;;;;;;;19.90;9.33;;;;;;;;;;5034673;28;20193;-91
2023/05/28 05:38:33;;;;;;;19.33;9.77;;;;;;;;;;5033919;28;20280;-90
2023/05/28 05:41:02;;;;;;;25.33;10.00;;;;;;;;;;5033836;28;20300;-90
2023/05/28 05:43:31;;;;;;;18.97;9.03;;;;;;;;;;5034069;28;20218;-91
2023/05/28 05:45:58;;;;;;;14.90;8.77;;;;;;;;;;5034389;28;20303;-91
2023/05/28 05:48:27;;;;;;;24.83;9.37;;;;;;;;;;5033895;28;20268;-91
2023/05/28 05:50:55;;;;;;;15.60;8.87;;;;;;;;;;5034210;28;20792;-91
2023/05/28 05:53:22;;;;;;;15.73;8.13;;;;;;;;;;5033555;28;20204;-91
2023/05/28 05:55:49;;;;;;;16.90;8.93;;;;;;;;;;5033176;28;20272;-91
2023/05/28 05:58:17;;;;;;;16.67;8.93;;;;;;;;;;5032822;28;20284;-90
2023/05/28 06:00:47;;;;;;;20.95;8.65;;;;;;;;;;5033187;28;20189;-90
2023/05/28 06:03:14;;;;;;;22.02;9.65;;;;;;;;;;5033659;28;20188;-90
2023/05/28 06:05:42;;;;;;;17.08;8.27;;;;;;;;;;5033916;28;20196;-89
2023/05/28 06:08:09;;;;;;;21.23;8.55;;;;;;;;;;5033282;28;20219;-91
2023/05/28 06:10:37;;;;;;;19.33;8.43;;;;;;;;;;5033646;28;20190;-90
2023/05/28 06:13:04;;;;;;;17.23;8.40;;;;;;;;;;5033162;28;20197;-90
2023/05/28 06:15:31;;;;;;;18.35;8.50;;;;;;;;;;5038470;28;20239;-90
2023/05/28 06:18:00;;;;;;;14.57;8.07;;;;;;;;;;5039687;28;20206;-90
2023/05/28 06:20:28;;;;;;;14.07;7.78;;;;;;;;;;5040137;28;20192;-90
2023/05/28 06:22:55;;;;;;;19.30;8.13;;;;;;;;;;5035891;28;20743;-90
2023/05/28 06:25:23;;;;;;;16.13;8.40;;;;;;;;;;5033958;28;20197;-89
2023/05/28 06:27:51;;;;;;;15.38;7.70;;;;;;;;;;5033207;28;20291;-90
2023/05/28 06:30:18;;;;;;;17.15;7.95;;;;;;;;;;5033452;28;20658;-90
2023/05/28 06:32:45;;;;;;;15.32;7.57;;;;;;;;;;5033326;28;20224;-89
2023/05/28 06:35:14;;;;;;;18.35;7.90;;;;;;;;;;5032959;28;20232;-89
2023/05/28 06:37:41;;;;;;;15.77;8.00;;;;;;;;;;5032813;28;20741;-89
2023/05/28 06:40:10;;;;;;;18.02;7.93;;;;;;;;;;5032846;28;20750;-89
2023/05/28 06:42:38;;;;;;;17.50;8.13;;;;;;;;;;5033099;28;20238;-89
2023/05/28 06:45:05;;;;;;;18.25;8.57;;;;;;;;;;5033002;28;20201;-89
2023/05/28 06:47:32;;;;;;;17.55;7.82;;;;;;;;;;5032916;28;20254;-88
2023/05/28 06:50:00;;;;;;;17.45;8.25;;;;;;;;;;5033112;28;20189;-88
2023/05/28 06:52:28;;;;;;;17.20;8.10;;;;;;;;;;5032213;28;20335;-89
2023/05/28 06:54:56;;;;;;;19.50;8.07;;;;;;;;;;5032986;28;20235;-92
2023/05/28 06:57:23;;;;;;;15.60;7.68;;;;;;;;;;5033288;28;20223;-90
2023/05/28 06:59:51;;;;;;;14.88;7.47;;;;;;;;;;5035312;28;20605;-89
2023/05/28 07:02:18;;;;;;;15.85;7.85;;;;;;;;;;5036432;28;20228;-88
2023/05/28 07:04:45;;;;;;;12.23;7.32;;;;;;;;;;5036156;28;20189;-89
2023/05/28 07:07:12;;;;;;;19.95;7.85;;;;;;;;;;5036019;28;20207;-90
2023/05/28 07:09:41;;;;;;;15.25;7.70;;;;;;;;;;5032760;28;20673;-90
2023/05/28 07:12:08;;;;;;;15.07;8.23;;;;;;;;;;5035455;28;20228;-87
2023/05/28 07:14:35;;;;;;;13.93;7.32;;;;;;;;;;5031832;28;20255;-86
2023/05/28 07:17:02;;;;;;;14.98;8.38;;;;;;;;;;5020394;28;20262;-84
2023/05/28 07:19:30;;;;;;;14.13;7.07;;;;;;;;;;5026459;28;20662;-85
2023/05/28 07:21:58;;;;;;;11.82;6.60;;;;;;;;;;5020499;28;20189;-86
2023/05/28 07:24:25;;;;;;;13.20;7.20;;;;;;;;;;5018088;28;20289;-86
2023/05/28 07:26:53;;;;;;;14.25;7.72;;;;;;;;;;5015220;28;20240;-86
2023/05/28 07:29:21;;;;;;;16.40;8.02;;;;;;;;;;5022617;28;20291;-86
2023/05/28 07:31:48;;;;;;;14.57;7.72;;;;;;;;;;5021879;28;20713;-86
2023/05/28 07:34:15;;;;;;;16.58;7.93;;;;;;;;;;5019597;28;20239;-85
2023/05/28 07:36:42;;;;;;;12.43;7.43;;;;;;;;;;5038492;28;20231;-85
2023/05/28 07:39:10;;;;;;;13.70;7.35;;;;;;;;;;5036652;28;20192;-86
2023/05/28 07:41:37;;;;;;;13.52;7.47;;;;;;;;;;5028796;28;21280;-87
2023/05/28 07:44:07;;;;;;;14.63;7.53;;;;;;;;;;5027641;28;20204;-87
2023/05/28 07:46:34;;;;;;;15.18;7.07;;;;;;;;;;5033332;28;20197;-85
2023/05/28 07:49:02;;;;;;;12.93;7.32;;;;;;;;;;5031876;28;20653;-88
2023/05/28 07:51:29;;;;;;;15.60;7.40;;;;;;;;;;5031785;28;20642;-90
2023/05/28 07:53:56;;;;;;;13.70;7.15;;;;;;;;;;5022741;28;20208;-85
2023/05/28 07:56:24;;;;;;;11.18;6.93;;;;;;;;;;5023975;28;20208;-87
2023/05/28 07:58:51;;;;;;;16.05;7.32;;;;;;;;;;5022408;28;20200;-86
2023/05/28 08:01:20;;;;;;;14.98;7.03;;;;;;;;;;5033192;28;20228;-84
2023/05/28 08:03:50;;;;;;;12.05;6.60;;;;;;;;;;5033042;28;20287;-85
2023/05/28 08:06:18;;;;;;;15.52;6.93;;;;;;;;;;5033546;28;20266;-83
2023/05/28 08:08:45;;;;;;;12.10;6.28;;;;;;;;;;5032116;28;20569;-84
2023/05/28 08:11:13;;;;;;;12.25;6.18;;;;;;;;;;5031559;28;20226;-86
2023/05/28 08:13:40;;;;;;;11.77;6.50;;;;;;;;;;5033809;28;20196;-89
2023/05/28 08:16:08;;;;;;;14.48;6.50;;;;;;;;;;5032875;28;20235;-89
2023/05/28 08:18:38;;;;;;;13.98;6.07;;;;;;;;;;5034836;28;20240;-88
2023/05/28 08:21:05;;;;;;;12.70;5.70;;;;;;;;;;5031485;28;20669;-90
2023/05/28 08:23:34;;;;;;;10.98;6.43;;;;;;;;;;5028249;28;20212;-90
2023/05/28 08:26:02;;;;;;;12.98;6.28;;;;;;;;;;5027306;28;20283;-88
2023/05/28 08:28:29;;;;;;;12.65;5.85;;;;;;;;;;5046994;28;20200;-88
2023/05/28 08:30:57;;;;;;;9.20;5.70;;;;;;;;;;5034289;28;20204;-88
2023/05/28 08:33:24;;;;;;;11.50;6.13;;;;;;;;;;5034131;28;20323;-87
2023/05/28 08:35:53;;;;;;;10.82;5.60;;;;;;;;;;5034869;28;20231;-88
2023/05/28 08:38:20;;;;;;;9.77;5.63;;;;;;;;;;5034195;28;20199;-87
2023/05/28 08:40:50;;;;;;;10.75;5.50;;;;;;;;;;5034221;28;20287;-88
2023/05/28 08:43:18;;;;;;;10.77;5.72;;;;;;;;;;5033824;28;20200;-87
2023/05/28 08:45:45;;;;;;;14.05;6.00;;;;;;;;;;5034334;28;20206;-88
2023/05/28 08:48:13;;;;;;;10.32;5.68;;;;;;;;;;5033932;28;20287;-89
2023/05/28 08:50:43;;;;;;;10.73;5.40;;;;;;;;;;5034409;28;20618;-89
2023/05/28 08:53:16;;;;;;;9.90;6.00;;;;;;;;;;5034100;28;20327;-89
2023/05/28 08:55:43;;;;;;;8.50;5.20;;;;;;;;;;5034678;28;20632;-89
2023/05/28 08:58:11;;;;;;;10.18;5.85;;;;;;;;;;5037476;28;20216;-88
2023/05/28 09:00:38;;;;;;;11.88;6.00;;;;;;;;;;5039594;28;20264;-87
2023/05/28 09:03:07;;;;;;;11.20;5.30;;;;;;;;;;5039889;28;20236;-85
2023/05/28 09:05:35;;;;;;;8.63;5.40;;;;;;;;;;5038476;28;20204;-88
2023/05/28 09:08:02;;;;;;;13.35;5.95;;;;;;;;;;5033742;28;20185;-88
2023/05/28 09:10:30;;;;;;;11.82;6.40;;;;;;;;;;5033491;28;20236;-88
2023/05/28 09:12:58;;;;;;;9.60;5.72;;;;;;;;;;5033720;28;20681;-87
2023/05/28 09:15:26;;;;;;;12.15;5.60;;;;;;;;;;5033578;28;20295;-88
2023/05/28 09:17:53;;;;;;;13.85;5.80;;;;;;;;;;5033195;28;20638;-87
2023/05/28 09:20:20;;;;;;;9.77;5.88;;;;;;;;;;5033530;28;20192;-87
2023/05/28 09:22:48;;;;;;;8.60;5.55;;;;;;;;;;5032436;28;20280;-87
2023/05/28 09:25:15;;;;;;;8.98;5.45;;;;;;;;;;5033088;28;20740;-86
2023/05/28 09:27:45;;;;;;;7.60;5.07;;;;;;;;;;5033667;28;20228;-87
2023/05/28 09:30:13;;;;;;;10.82;5.68;;;;;;;;;;5032803;28;20211;-87
2023/05/28 09:32:40;;;;;;;9.52;4.82;;;;;;;;;;5033069;28;20322;-88
2023/05/28 09:35:08;;;;;;;8.25;5.22;;;;;;;;;;5033280;28;20607;-86
2023/05/28 09:37:36;;;;;;;9.15;5.30;;;;;;;;;;5033626;28;20638;-87
2023/05/28 09:40:04;;;;;;;9.43;5.78;;;;;;;;;;5033172;28;20272;-86
2023/05/28 09:42:40;;;;;;;8.05;5.35;;;;;;;;;;5033317;28;20188;-87
2023/05/28 09:45:10;;;;;;;9.90;5.25;;;;;;;;;;5033073;28;20561;-88
2023/05/28 09:47:43;;;;;;;9.57;5.68;;;;;;;;;;5033339;28;20196;-87
2023/05/28 09:50:11;;;;;;;8.68;5.05;;;;;;;;;;5032921;28;20200;-86
2023/05/28 09:52:39;;;;;;;10.15;5.28;;;;;;;;;;5032835;28;20228;-87
2023/05/28 09:55:08;;;;;;;7.05;5.13;;;;;;;;;;5033061;28;20223;-87
2023/05/28 09:57:37;;;;;;;11.23;5.22;;;;;;;;;;5033461;28;20279;-87
2023/05/28 10:00:13;;;;;;;10.80;5.30;;;;;;;;;;5031760;28;20752;-87
2023/05/28 10:02:45;;;;;;;9.95;5.50;;;;;;;;;;5023069;28;20200;-87
2023/05/28 10:05:16;;;;;;;9.50;5.53;;;;;;;;;;5011922;28;20240;-88
2023/05/28 10:07:45;;;;;;;11.02;6.10;;;;;;;;;;5012859;28;20292;-88
2023/05/28 10:10:13;;;;;;;11.82;6.03;;;;;;;;;;5012535;28;20365;-88
2023/05/28 10:12:40;;;;;;;10.05;6.20;;;;;;;;;;5012826;28;20296;-86
2023/05/28 10:15:08;;;;;;;9.90;5.70;;;;;;;;;;5036981;28;20200;-88
2023/05/28 10:17:36;;;;;;;9.52;5.50;;;;;;;;;;5052657;28;20200;-87
2023/05/28 10:20:05;;;;;;;10.25;5.40;;;;;;;;;;5052230;28;20281;-87
2023/05/28 10:22:33;;;;;;;12.30;5.75;;;;;;;;;;5052233;28;20196;-86
2023/05/28 10:25:01;;;;;;;8.70;5.70;;;;;;;;;;5058173;28;20237;-87
2023/05/28 10:27:31;;;;;;;9.02;6.32;;;;;;;;;;5059692;28;20199;-87
2023/05/28 10:29:58;;;;;;;8.77;5.55;;;;;;;;;;5044439;28;20291;-87
2023/05/28 10:32:25;;;;;;;9.75;5.30;;;;;;;;;;5033794;28;20326;-87
2023/05/28 10:35:02;;;;;;;13.68;5.97;;;;;;;;;;5036361;28;20720;-86
2023/05/28 10:37:31;;;;;;;11.00;5.82;;;;;;;;;;5040302;28;20196;-87
2023/05/28 10:40:00;;;;;;;11.45;5.68;;;;;;;;;;5036646;28;20196;-87
2023/05/28 10:42:28;;;;;;;11.23;5.90;;;;;;;;;;5036377;28;20212;-86
2023/05/28 10:45:09;;;;;;;10.32;6.00;;;;;;;;;;5035796;28;20280;-87
2023/05/28 10:47:37;;;;;;;7.43;5.65;;;;;;;;;;5036151;28;20749;-86
2023/05/28 10:50:15;;;;;;;9.95;5.60;;;;;;;;;;5036068;28;20288;-87
2023/05/28 10:52:44;;;;;;;7.60;5.40;;;;;;;;;;5036150;28;20227;-87
2023/05/28 10:55:12;;;;;;;9.10;5.90;;;;;;;;;;5036041;28;20287;-88
2023/05/28 10:57:42;;;;;;;9.13;6.05;;;;;;;;;;5036110;28;20217;-88
2023/05/28 11:00:13;;;;;;;9.35;6.22;;;;;;;;;;5035683;28;20247;-88
2023/05/28 11:02:41;;;;;;;8.25;5.65;;;;;;;;;;5036418;28;20189;-87
2023/05/28 11:05:09;;;;;;;9.65;6.28;;;;;;;;;;5036204;28;20196;-87
2023/05/28 11:07:37;;;;;;;10.68;7.78;;;;;;;;;;5036018;28;20747;-86
2023/05/28 11:10:07;;;;;;;11.55;6.43;;;;;;;;;;5035738;28;20279;-86
2023/05/28 11:12:36;;;;;;;9.32;6.05;;;;;;;;;;5035267;28;20242;-87
2023/05/28 11:15:04;;;;;;;9.77;5.68;;;;;;;;;;5035787;28;20200;-87
2023/05/28 11:17:31;;;;;;;10.05;5.22;;;;;;;;;;5035981;28;20235;-87
2023/05/28 11:19:58;;;;;;;10.00;5.80;;;;;;;;;;5035485;28;20232;-86
2023/05/28 11:22:34;;;;;;;9.65;6.00;;;;;;;;;;5035534;28;20240;-87
2023/05/28 11:25:04;;;;;;;8.73;5.40;;;;;;;;;;5035683;28;20200;-88
2023/05/28 11:27:35;;;;;;;10.20;6.43;;;;;;;;;;5034931;28;20224;-88
2023/05/28 11:30:03;;;;;;;9.40;5.80;;;;;;;;;;5034477;28;20246;-87
2023/05/28 11:32:33;;;;;;;9.77;5.32;;;;;;;;;;5035429;28;20634;-87
2023/05/28 11:35:00;;;;;;;8.60;5.40;;;;;;;;;;5034880;28;20343;-87
2023/05/28 11:37:27;;;;;;;9.10;5.50;;;;;;;;;;5035358;28;20563;-86
2023/05/28 11:39:55;;;;;;;8.82;5.50;;;;;;;;;;5034646;28;20201;-89
2023/05/28 11:42:23;;;;;;;10.82;5.88;;;;;;;;;;5034237;28;20189;-88
2023/05/28 11:44:52;;;;;;;9.05;5.95;;;;;;;;;;5034535;28;20284;-87
2023/05/28 11:47:20;;;;;;;11.55;6.22;;;;;;;;;;5034765;28;20223;-86
2023/05/28 11:49:47;;;;;;;9.23;5.90;;;;;;;;;;5037920;28;20225;-86
2023/05/28 11:52:15;;;;;;;8.95;6.30;;;;;;;;;;5041762;28;20246;-87
2023/05/28 11:54:43;;;;;;;12.00;7.10;;;;;;;;;;5041109;28;20220;-87
2023/05/28 11:57:10;;;;;;;10.45;6.47;;;;;;;;;;5039376;28;20700;-87
2023/05/28 11:59:38;;;;;;;10.55;6.20;;;;;;;;;;5035108;28;20236;-87
2023/05/28 12:02:13;;;;;;;9.57;5.40;;;;;;;;;;5035362;28;20200;-87
2023/05/28 12:04:41;;;;;;;8.10;5.45;;;;;;;;;;5035066;28;20212;-88
2023/05/28 12:07:08;;;;;;;9.32;5.80;;;;;;;;;;5035054;28;20208;-86
2023/05/28 12:09:36;;;;;;;9.70;5.75;;;;;;;;;;5034638;28;20287;-87
2023/05/28 12:12:06;;;;;;;10.80;5.95;;;;;;;;;;5033708;28;20212;-87
2023/05/28 12:14:34;;;;;;;9.25;6.13;;;;;;;;;;5034540;28;20236;-87
2023/05/28 12:17:08;;;;;;;9.63;5.95;;;;;;;;;;5034511;28;20231;-87
2023/05/28 12:19:38;;;;;;;8.32;5.45;;;;;;;;;;5043877;28;20196;-87
2023/05/28 12:22:06;;;;;;;9.27;5.60;;;;;;;;;;5037628;28;20188;-85
2023/05/28 12:24:34;;;;;;;8.75;5.40;;;;;;;;;;5032762;28;20571;-87
2023/05/28 12:27:01;;;;;;;10.00;6.15;;;;;;;;;;5040989;28;20204;-87
2023/05/28 12:29:28;;;;;;;10.45;6.03;;;;;;;;;;5039727;28;20188;-86
2023/05/28 12:31:59;;;;;;;9.75;6.55;;;;;;;;;;5035836;28;20189;-87
2023/05/28 12:34:26;;;;;;;12.05;6.20;;;;;;;;;;5034250;28;20232;-87
2023/05/28 12:36:55;;;;;;;9.63;5.85;;;;;;;;;;5033876;28;20615;-87
2023/05/28 12:39:23;;;;;;;10.63;6.18;;;;;;;;;;5032750;28;20258;-86
2023/05/28 12:41:50;;;;;;;9.55;5.97;;;;;;;;;;5033688;28;20283;-87
2023/05/28 12:44:17;;;;;;;9.40;6.32;;;;;;;;;;5033801;28;20283;-86
2023/05/28 12:46:44;;;;;;;9.00;5.93;;;;;;;;;;5033564;28;20292;-86
2023/05/28 12:49:11;;;;;;;9.32;6.15;;;;;;;;;;5033557;28;20259;-86
2023/05/28 12:51:39;;;;;;;8.70;5.47;;;;;;;;;;5033726;28;20727;-87
2023/05/28 12:54:08;;;;;;;7.63;5.78;;;;;;;;;;5032826;28;20231;-87
2023/05/28 12:56:35;;;;;;;12.20;6.13;;;;;;;;;;5033078;28;20200;-86
2023/05/28 12:59:02;;;;;;;9.35;5.90;;;;;;;;;;5033196;28;20574;-85
2023/05/28 13:01:29;;;;;;;10.82;6.03;;;;;;;;;;5033509;28;20576;-87
2023/05/28 13:03:56;;;;;;;10.27;5.78;;;;;;;;;;5033354;28;20654;-86
2023/05/28 13:06:24;;;;;;;9.43;5.93;;;;;;;;;;5033101;28;20737;-87
2023/05/28 13:08:51;;;;;;;7.75;5.40;;;;;;;;;;5032174;28;20290;-86
2023/05/28 13:11:20;;;;;;;8.18;5.75;;;;;;;;;;5032017;28;20608;-86
2023/05/28 13:13:47;;;;;;;8.73;5.70;;;;;;;;;;5032996;28;20319;-85
2023/05/28 13:16:14;;;;;;;8.68;5.90;;;;;;;;;;5034377;28;20323;-86
2023/05/28 13:18:42;;;;;;;9.13;5.35;;;;;;;;;;5036358;28;20207;-86
2023/05/28 13:21:10;;;;;;;8.18;5.78;;;;;;;;;;5036372;28;20572;-85
2023/05/28 13:23:37;;;;;;;8.35;5.72;;;;;;;;;;5034814;28;20205;-87
2023/05/28 13:26:04;;;;;;;7.40;5.45;;;;;;;;;;5033107;28;20292;-86
2023/05/28 13:28:33;;;;;;;6.95;5.18;;;;;;;;;;5032772;28;20661;-86
2023/05/28 13:31:00;;;;;;;10.32;5.45;;;;;;;;;;5032956;28;20288;-86
2023/05/28 13:33:28;;;;;;;9.75;6.18;;;;;;;;;;5032672;28;20331;-87
2023/05/28 13:35:55;;;;;;;10.10;5.78;;;;;;;;;;5033132;28;20230;-87
2023/05/28 13:38:22;;;;;;;8.57;5.85;;;;;;;;;;5032599;28;20303;-87
2023/05/28 13:40:49;;;;;;;8.32;5.32;;;;;;;;;;5032674;28;20250;-87
2023/05/28 13:43:16;;;;;;;9.07;5.30;;;;;;;;;;5032870;28;20295;-86
2023/05/28 13:45:45;;;;;;;7.60;5.85;;;;;;;;;;5030856;28;20192;-86
2023/05/28 13:48:13;;;;;;;7.45;5.03;;;;;;;;;;5032696;28;20630;-87
2023/05/28 13:50:40;;;;;;;6.82;5.05;;;;;;;;;;5032513;28;20665;-87
2023/05/28 13:53:07;;;;;;;7.93;5.68;;;;;;;;;;5032150;28;20204;-86
2023/05/28 13:55:34;;;;;;;8.18;5.30;;;;;;;;;;5032694;28;20193;-86
2023/05/28 13:58:01;;;;;;;7.40;5.68;;;;;;;;;;5032167;28;20323;-86
2023/05/28 14:00:28;;;;;;;7.40;5.30;;;;;;;;;;5032608;28;20228;-88
2023/05/28 14:02:57;;;;;;;7.97;5.45;;;;;;;;;;5032890;28;20219;-87
2023/05/28 14:05:24;;;;;;;8.52;5.32;;;;;;;;;;5032706;28;20631;-87
2023/05/28 14:07:52;;;;;;;7.85;5.43;;;;;;;;;;5031395;28;20203;-87
2023/05/28 14:10:19;;;;;;;7.40;5.38;;;;;;;;;;5032716;28;20591;-86
2023/05/28 14:12:51;;;;;;;8.52;5.45;;;;;;;;;;5032250;28;20215;-86
2023/05/28 14:15:18;;;;;;;7.97;5.35;;;;;;;;;;5031594;28;20314;-86
2023/05/28 14:17:45;;;;;;;8.20;5.43;;;;;;;;;;5031584;28;20287;-87
2023/05/28 14:20:14;;;;;;;9.32;5.32;;;;;;;;;;5032368;28;20274;-87
2023/05/28 14:22:42;;;;;;;7.55;5.50;;;;;;;;;;5031968;28;20228;-86
2023/05/28 14:25:10;;;;;;;7.78;5.55;;;;;;;;;;5032252;28;20236;-87
2023/05/28 14:27:37;;;;;;;10.23;5.90;;;;;;;;;;5032390;28;20288;-86
2023/05/28 14:30:05;;;;;;;7.45;5.35;;;;;;;;;;5013597;28;20288;-86
2023/05/28 14:32:32;;;;;;;7.38;5.40;;;;;;;;;;5012736;28;20692;-87
2023/05/28 14:34:59;;;;;;;6.90;5.30;;;;;;;;;;5012091;28;20233;-87